Time;durP1;ratioP1;P1;durP2;ratioP2;P2;SDS_P1;SDS_P2;PMS_P1;PMS_P2;Temp;Humidity;BMP_temperature;BMP_pressure;BME280_temperature;BME280_humidity;BME280_pressure;Samples;Min_cycle;Max_cycle;Signal;HPM_P1;HPM_P2
2023/05/26 00:00:57;;;;;;;;;;;23.10;56.50;;;;;;5106801;27;43004;-77
2023/05/26 00:03:23;;;;;;;;;;;23.10;56.10;;;;;;5106093;27;43993;-77
2023/05/26 00:05:48;;;;;;;;;;;23.10;56.60;;;;;;5086428;27;43561;-78
2023/05/26 00:08:14;;;;;;;;;;;23.20;56.60;;;;;;5106263;27;43686;-78
2023/05/26 00:10:40;;;;;;;;;;;23.10;56.10;;;;;;5106047;27;42905;-79
2023/05/26 00:13:06;;;;;;;;;;;23.00;56.10;;;;;;5106109;27;42979;-78
2023/05/26 00:15:31;;;;;;;;;;;23.10;56.60;;;;;;5104142;27;43234;-78
2023/05/26 00:18:01;;;;;;;;;;;23.20;55.80;;;;;;5106596;27;43065;-78
2023/05/26 00:20:27;;;;;;;;;;;23.30;56.00;;;;;;5106159;27;43016;-78
2023/05/26 00:22:53;;;;;;;;;;;23.40;55.30;;;;;;5105344;27;42944;-78
2023/05/26 00:25:18;;;;;;;;;;;23.40;55.80;;;;;;5106492;27;43105;-79
2023/05/26 00:27:44;;;;;;;;;;;23.30;55.90;;;;;;5106236;27;43047;-78
2023/05/26 00:30:10;;;;;;;;;;;23.30;56.00;;;;;;5106717;27;42919;-77
2023/05/26 00:32:35;;;;;;;;;;;23.30;56.00;;;;;;5106334;27;43579;-79
2023/05/26 00:35:01;;;;;;;;;;;23.20;55.60;;;;;;5106485;27;43052;-78
2023/05/26 00:37:26;;;;;;;;;;;23.20;56.20;;;;;;5106112;27;42935;-77
2023/05/26 00:39:52;;;;;;;;;;;23.20;56.10;;;;;;5106344;27;43163;-77
2023/05/26 00:42:17;;;;;;;;;;;23.20;55.60;;;;;;5105743;27;43533;-79
2023/05/26 00:44:43;;;;;;;;;;;23.30;56.00;;;;;;5106506;27;42862;-79
2023/05/26 00:47:08;;;;;;;;;;;23.20;55.90;;;;;;5104013;27;42973;-78
2023/05/26 00:49:34;;;;;;;;;;;23.20;55.40;;;;;;5106309;27;43150;-78
2023/05/26 00:52:00;;;;;;;;;;;23.20;55.40;;;;;;5106265;27;43303;-77
2023/05/26 00:54:25;;;;;;;;;;;23.20;55.90;;;;;;5106180;27;42977;-78
2023/05/26 00:56:51;;;;;;;;;;;23.10;55.90;;;;;;5105990;27;43566;-78
2023/05/26 00:59:17;;;;;;;;;;;23.00;55.60;;;;;;5105715;27;43029;-78
2023/05/26 01:01:43;;;;;;;;;;;22.90;55.60;;;;;;5106039;27;43040;-79
2023/05/26 01:04:09;;;;;;;;;;;22.90;55.90;;;;;;5087349;27;42937;-78
2023/05/26 01:06:34;;;;;;;;;;;22.90;56.30;;;;;;5105685;27;42922;-77
2023/05/26 01:09:00;;;;;;;;;;;22.90;55.80;;;;;;5104939;27;42977;-78
2023/05/26 01:11:34;;;;;;;;;;;23.00;56.20;;;;;;5105510;27;42997;-78
2023/05/26 01:14:05;;;;;;;;;;;23.00;55.80;;;;;;5105711;27;42919;-78
2023/05/26 01:16:36;;;;;;;;;;;23.00;56.20;;;;;;5104904;27;43543;-78
2023/05/26 01:19:13;;;;;;;;;;;23.00;55.50;;;;;;5102268;27;42968;-79
2023/05/26 01:21:40;;;;;;;;;;;23.00;55.90;;;;;;5104430;27;44584;-77
2023/05/26 01:24:17;;;;;;;;;;;24.80;56.90;;;;;;5104852;27;43153;-77
2023/05/26 01:26:49;;;;;;;;;;;22.90;56.10;;;;;;5105621;27;42843;-79
2023/05/26 01:29:15;;;;;;;;;;;22.90;56.20;;;;;;5105845;27;42963;-78
2023/05/26 01:31:41;;;;;;;;;;;23.00;55.90;;;;;;5105441;27;43545;-79
2023/05/26 01:34:07;;;;;;;;;;;23.10;55.80;;;;;;5101719;27;42968;-78
2023/05/26 01:36:33;;;;;;;;;;;23.00;55.70;;;;;;5105602;27;43431;-78
2023/05/26 01:38:59;;;;;;;;;;;22.90;55.20;;;;;;5104203;27;42815;-78
2023/05/26 01:41:37;;;;;;;;;;;22.90;55.90;;;;;;5104835;27;43222;-77
2023/05/26 01:44:08;;;;;;;;;;;22.90;56.00;;;;;;5104295;27;42998;-78
2023/05/26 01:46:34;;;;;;;;;;;22.90;55.50;;;;;;5105338;27;43322;-78
2023/05/26 01:49:01;;;;;;;;;;;23.10;55.80;;;;;;5105020;27;42887;-78
2023/05/26 01:51:29;;;;;;;;;;;23.10;55.40;;;;;;5103116;27;42917;-78
2023/05/26 01:53:57;;;;;;;;;;;23.50;55.60;;;;;;5104509;27;42904;-77
2023/05/26 01:56:23;;;;;;;;;;;23.00;55.40;;;;;;5104608;27;42949;-77
2023/05/26 01:58:50;;;;;;;;;;;23.00;55.50;;;;;;5104604;27;43045;-79
2023/05/26 02:01:15;;;;;;;;;;;22.90;55.10;;;;;;5104264;27;44063;-77
2023/05/26 02:03:41;;;;;;;;;;;22.80;55.20;;;;;;5104881;27;43041;-77
2023/05/26 02:06:07;;;;;;;;;;;22.80;55.20;;;;;;5104690;27;44030;-77
2023/05/26 02:08:33;;;;;;;;;;;22.80;55.60;;;;;;5103542;27;43032;-77
2023/05/26 02:10:58;;;;;;;;;;;22.80;55.80;;;;;;5104803;27;42925;-77
2023/05/26 02:13:24;;;;;;;;;;;22.80;55.80;;;;;;5105362;27;42839;-75
2023/05/26 02:15:50;;;;;;;;;;;22.70;55.20;;;;;;5105276;27;42873;-79
2023/05/26 02:18:16;;;;;;;;;;;22.70;55.10;;;;;;5105111;27;42895;-78
2023/05/26 02:20:41;;;;;;;;;;;22.70;55.00;;;;;;5104575;27;42963;-77
2023/05/26 02:23:07;;;;;;;;;;;22.70;55.60;;;;;;5104837;27;43194;-79
2023/05/26 02:25:33;;;;;;;;;;;22.80;55.50;;;;;;5092648;27;43017;-79
2023/05/26 02:27:58;;;;;;;;;;;22.70;54.80;;;;;;5105772;27;42854;-78
2023/05/26 02:30:24;;;;;;;;;;;22.70;55.60;;;;;;5095741;27;42823;-79
2023/05/26 02:32:49;;;;;;;;;;;22.60;55.60;;;;;;5069960;28;42947;-79
2023/05/26 02:35:15;;;;;;;;;;;22.60;55.20;;;;;;5088120;27;43153;-79
2023/05/26 02:37:42;;;;;;;;;;;22.60;55.60;;;;;;5087919;27;43014;-78
2023/05/26 02:40:09;;;;;;;;;;;22.70;55.00;;;;;;5075285;27;44032;-79
2023/05/26 02:42:34;;;;;;;;;;;22.90;55.10;;;;;;5108107;27;42973;-79
2023/05/26 02:45:00;;;;;;;;;;;23.00;54.70;;;;;;5107037;27;44193;-78
2023/05/26 02:47:25;;;;;;;;;;;22.90;54.70;;;;;;5107511;27;43047;-79
2023/05/26 02:49:51;;;;;;;;;;;22.90;54.80;;;;;;5108123;27;42974;-80
2023/05/26 02:52:16;;;;;;;;;;;22.80;54.90;;;;;;5107270;27;43026;-80
2023/05/26 02:54:42;;;;;;;;;;;22.80;54.90;;;;;;5106347;27;43143;-77
2023/05/26 02:57:07;;;;;;;;;;;22.70;54.90;;;;;;5107606;27;42875;-78
2023/05/26 02:59:33;;;;;;;;;;;22.60;54.30;;;;;;5107827;27;43626;-79
2023/05/26 03:01:58;;;;;;;;;;;22.60;54.50;;;;;;5107863;27;42975;-79
2023/05/26 03:04:24;;;;;;;;;;;22.70;55.10;;;;;;5106958;27;43767;-79
2023/05/26 03:06:49;;;;;;;;;;;22.60;55.00;;;;;;5107489;27;42822;-79
2023/05/26 03:09:15;;;;;;;;;;;22.90;54.60;;;;;;5108125;27;42974;-77
2023/05/26 03:11:41;;;;;;;;;;;22.50;54.50;;;;;;5102742;27;43191;-78
2023/05/26 03:14:06;;;;;;;;;;;22.60;55.20;;;;;;5107312;27;43660;-78
2023/05/26 03:16:32;;;;;;;;;;;22.50;54.70;;;;;;5104324;27;42916;-79
2023/05/26 03:18:57;;;;;;;;;;;22.50;54.80;;;;;;5107816;27;43004;-79
2023/05/26 03:21:23;;;;;;;;;;;22.60;55.30;;;;;;5107614;27;42977;-79
2023/05/26 03:23:50;;;;;;;;;;;22.80;55.20;;;;;;5101534;27;64660;-82
2023/05/26 03:26:16;;;;;;;;;;;22.50;54.40;;;;;;5099692;27;42962;-78
2023/05/26 03:28:41;;;;;;;;;;;22.40;54.40;;;;;;5089807;27;43239;-78
2023/05/26 03:31:07;;;;;;;;;;;22.40;55.20;;;;;;5086126;27;42929;-79
2023/05/26 03:33:32;;;;;;;;;;;22.40;55.40;;;;;;5086193;28;43639;-79
2023/05/26 03:35:59;;;;;;;;;;;22.40;55.40;;;;;;5086737;28;43301;-78
2023/05/26 03:38:25;;;;;;;;;;;22.40;55.20;;;;;;5085730;27;42899;-78
2023/05/26 03:40:50;;;;;;;;;;;22.40;54.70;;;;;;5099153;27;42921;-77
2023/05/26 03:43:16;;;;;;;;;;;22.50;55.20;;;;;;5097049;27;42945;-77
2023/05/26 03:45:41;;;;;;;;;;;22.50;55.10;;;;;;5091030;27;42938;-79
2023/05/26 03:48:09;;;;;;;;;;;22.40;54.50;;;;;;5085532;28;43706;-78
2023/05/26 03:50:34;;;;;;;;;;;22.50;54.60;;;;;;5102548;27;42950;-78
2023/05/26 03:53:00;;;;;;;;;;;22.50;55.00;;;;;;5099012;27;42866;-78
2023/05/26 03:55:25;;;;;;;;;;;22.50;54.50;;;;;;5098322;27;43460;-77
2023/05/26 03:57:51;;;;;;;;;;;22.60;54.90;;;;;;5099293;27;43333;-77
2023/05/26 04:00:16;;;;;;;;;;;22.60;54.70;;;;;;5095733;27;42978;-78
2023/05/26 04:02:42;;;;;;;;;;;22.60;54.80;;;;;;5099153;27;43035;-78
2023/05/26 04:05:08;;;;;;;;;;;22.50;54.60;;;;;;5091833;27;42885;-77
2023/05/26 04:07:34;;;;;;;;;;;22.50;54.80;;;;;;5086200;28;43979;-78
2023/05/26 04:09:59;;;;;;;;;;;22.50;55.00;;;;;;5093817;27;43138;-79
2023/05/26 04:12:25;;;;;;;;;;;22.50;54.30;;;;;;5095472;27;43227;-79
2023/05/26 04:14:50;;;;;;;;;;;22.50;54.80;;;;;;5093350;27;42846;-79
2023/05/26 04:17:16;;;;;;;;;;;22.40;54.80;;;;;;5092310;27;44097;-79
2023/05/26 04:19:41;;;;;;;;;;;22.40;55.00;;;;;;5095293;27;42864;-78
2023/05/26 04:22:07;;;;;;;;;;;22.50;55.10;;;;;;5093631;27;44093;-79
2023/05/26 04:24:32;;;;;;;;;;;22.60;54.60;;;;;;5093150;27;43050;-78
2023/05/26 04:26:58;;;;;;;;;;;22.70;54.50;;;;;;5076975;27;44344;-80
2023/05/26 04:29:23;;;;;;;;;;;22.70;54.40;;;;;;5096159;27;42904;-82
2023/05/26 04:31:50;;;;;;;;;;;22.70;53.90;;;;;;5088023;27;44511;-81
2023/05/26 04:34:21;;;;;;;;;;;22.70;53.40;;;;;;5085135;28;43073;-80
2023/05/26 04:36:48;;;;;;;;;;;22.70;54.20;;;;;;5091397;27;43721;-80
2023/05/26 04:39:14;;;;;;;;;;;22.70;53.70;;;;;;5097379;27;43020;-79
2023/05/26 04:41:41;;;;;;;;;;;22.70;53.40;;;;;;5094122;27;43020;-82
2023/05/26 04:44:07;;;;;;;;;;;22.70;53.30;;;;;;5094379;27;42882;-84
2023/05/26 04:46:37;;;;;;;;;;;22.70;53.30;;;;;;5099647;27;43788;-82
2023/05/26 04:49:03;;;;;;;;;;;22.80;53.40;;;;;;5099610;27;42998;-82
2023/05/26 04:51:31;;;;;;;;;;;22.90;53.30;;;;;;5095402;27;43694;-82
2023/05/26 04:53:57;;;;;;;;;;;22.90;53.40;;;;;;5093625;27;43080;-85
2023/05/26 04:56:22;;;;;;;;;;;22.90;52.70;;;;;;5089967;27;43591;-82
2023/05/26 04:58:48;;;;;;;;;;;23.00;53.20;;;;;;5084882;28;42888;-83
2023/05/26 05:01:16;;;;;;;;;;;23.10;53.00;;;;;;5085295;28;43453;-83
2023/05/26 05:03:42;;;;;;;;;;;23.00;52.40;;;;;;5088543;27;42977;-82
2023/05/26 05:06:08;;;;;;;;;;;23.10;52.30;;;;;;5098742;27;44422;-83
2023/05/26 05:08:34;;;;;;;;;;;23.10;52.60;;;;;;5095819;27;42990;-84
2023/05/26 05:10:59;;;;;;;;;;;23.20;52.50;;;;;;5095180;27;43560;-83
2023/05/26 05:13:25;;;;;;;;;;;23.20;52.60;;;;;;5094359;27;42972;-83
2023/05/26 05:15:50;;;;;;;;;;;23.20;52.10;;;;;;5095489;27;43456;-81
2023/05/26 05:18:16;;;;;;;;;;;23.20;52.70;;;;;;5095568;27;43201;-81
2023/05/26 05:20:41;;;;;;;;;;;23.30;52.90;;;;;;5083382;28;43565;-79
2023/05/26 05:23:07;;;;;;;;;;;23.30;53.00;;;;;;5085064;28;43045;-81
2023/05/26 05:25:32;;;;;;;;;;;23.30;53.10;;;;;;5085130;28;43495;-79
2023/05/26 05:27:58;;;;;;;;;;;23.30;52.50;;;;;;5084851;28;42995;-80
2023/05/26 05:30:23;;;;;;;;;;;23.30;53.10;;;;;;5065646;28;44596;-81
2023/05/26 05:32:49;;;;;;;;;;;23.30;53.10;;;;;;5066526;28;42942;-81
2023/05/26 05:35:15;;;;;;;;;;;23.30;53.10;;;;;;5084721;28;43919;-81
2023/05/26 05:37:40;;;;;;;;;;;23.30;53.20;;;;;;5085109;28;42906;-81
2023/05/26 05:40:06;;;;;;;;;;;23.30;53.30;;;;;;5084721;28;42935;-81
2023/05/26 05:42:31;;;;;;;;;;;23.40;53.20;;;;;;5085132;28;42875;-81
2023/05/26 05:44:57;;;;;;;;;;;23.40;53.30;;;;;;5084807;28;42900;-81
2023/05/26 05:47:22;;;;;;;;;;;23.40;53.40;;;;;;5085165;28;42946;-81
2023/05/26 05:49:48;;;;;;;;;;;23.40;53.50;;;;;;5085201;28;42876;-81
2023/05/26 05:52:14;;;;;;;;;;;23.40;53.50;;;;;;5085126;28;42878;-81
2023/05/26 05:54:40;;;;;;;;;;;23.40;53.00;;;;;;5084259;28;42856;-81
2023/05/26 05:57:05;;;;;;;;;;;23.40;53.10;;;;;;5084936;28;43009;-81
2023/05/26 05:59:31;;;;;;;;;;;23.40;53.60;;;;;;5084994;28;43000;-80
2023/05/26 06:01:57;;;;;;;;;;;23.30;53.00;;;;;;5085112;28;42915;-81
2023/05/26 06:04:22;;;;;;;;;;;23.40;53.60;;;;;;5086154;28;43044;-81
2023/05/26 06:06:49;;;;;;;;;;;23.40;53.70;;;;;;5088089;28;43076;-81
2023/05/26 06:09:15;;;;;;;;;;;23.40;53.20;;;;;;5087367;28;43759;-80
2023/05/26 06:11:40;;;;;;;;;;;23.50;53.80;;;;;;5088227;28;42988;-81
2023/05/26 06:14:06;;;;;;;;;;;23.40;53.20;;;;;;5087810;28;43358;-81
2023/05/26 06:16:32;;;;;;;;;;;23.40;53.70;;;;;;5088261;28;43057;-81
2023/05/26 06:18:57;;;;;;;;;;;23.50;53.30;;;;;;5088009;28;42892;-80
2023/05/26 06:21:23;;;;;;;;;;;23.40;53.70;;;;;;5087249;28;42832;-80
2023/05/26 06:23:49;;;;;;;;;;;23.50;53.80;;;;;;5088366;28;42906;-80
2023/05/26 06:26:14;;;;;;;;;;;23.50;53.50;;;;;;5087840;28;42932;-79
2023/05/26 06:28:40;;;;;;;;;;;23.50;54.00;;;;;;5088383;28;43819;-80
2023/05/26 06:31:06;;;;;;;;;;;23.50;54.00;;;;;;5088362;28;43060;-80
2023/05/26 06:33:31;;;;;;;;;;;23.50;54.00;;;;;;5087389;28;42996;-80
2023/05/26 06:35:57;;;;;;;;;;;23.50;54.10;;;;;;5087481;28;42894;-79
2023/05/26 06:38:22;;;;;;;;;;;23.50;54.10;;;;;;5087691;28;42934;-80
2023/05/26 06:40:48;;;;;;;;;;;23.50;54.10;;;;;;5087683;28;42835;-80
2023/05/26 06:43:13;;;;;;;;;;;23.60;54.20;;;;;;5087787;28;42941;-80
2023/05/26 06:45:39;;;;;;;;;;;23.50;54.20;;;;;;5087807;28;42857;-80
2023/05/26 06:48:04;;;;;;;;;;;23.50;54.30;;;;;;5087399;28;43584;-80
2023/05/26 06:50:29;;;;;;;;;;;23.60;54.30;;;;;;5087706;28;42858;-80
2023/05/26 06:52:55;;;;;;;;;;;23.50;54.40;;;;;;5087230;28;42768;-80
2023/05/26 06:55:20;;;;;;;;;;;23.60;54.40;;;;;;5087598;28;42719;-79
2023/05/26 06:57:46;;;;;;;;;;;23.60;54.50;;;;;;5087106;28;43018;-80
2023/05/26 07:00:12;;;;;;;;;;;23.50;54.60;;;;;;5087625;28;42797;-80
2023/05/26 07:02:39;;;;;;;;;;;23.50;54.10;;;;;;5069093;28;45406;-80
2023/05/26 07:05:04;;;;;;;;;;;23.60;54.80;;;;;;5087903;28;42985;-80
2023/05/26 07:07:30;;;;;;;;;;;23.60;54.20;;;;;;5087257;28;42929;-80
2023/05/26 07:09:56;;;;;;;;;;;23.60;54.40;;;;;;5086430;28;43002;-80
2023/05/26 07:12:21;;;;;;;;;;;23.60;55.20;;;;;;5087113;28;43469;-80
2023/05/26 07:14:47;;;;;;;;;;;23.60;54.60;;;;;;5068710;28;43192;-79
2023/05/26 07:17:13;;;;;;;;;;;23.60;54.40;;;;;;5087386;28;42994;-80
2023/05/26 07:19:38;;;;;;;;;;;23.60;54.40;;;;;;5086995;28;43037;-81
2023/05/26 07:22:04;;;;;;;;;;;23.60;54.30;;;;;;5087020;28;42899;-80
2023/05/26 07:24:29;;;;;;;;;;;23.70;54.20;;;;;;5087355;28;42840;-80
2023/05/26 07:26:55;;;;;;;;;;;23.60;53.40;;;;;;5086670;28;43374;-80
2023/05/26 07:29:20;;;;;;;;;;;23.60;54.00;;;;;;5086983;28;42927;-80
2023/05/26 07:31:46;;;;;;;;;;;23.60;53.90;;;;;;5086611;28;43596;-80
2023/05/26 07:34:12;;;;;;;;;;;23.60;53.40;;;;;;5086464;28;42925;-80
2023/05/26 07:36:37;;;;;;;;;;;23.70;54.10;;;;;;5086694;28;43001;-80
2023/05/26 07:39:03;;;;;;;;;;;23.70;54.00;;;;;;5068320;28;42916;-80
2023/05/26 07:41:28;;;;;;;;;;;23.70;53.90;;;;;;5086754;28;43548;-80
2023/05/26 07:43:54;;;;;;;;;;;23.70;53.60;;;;;;5087147;28;42919;-80
2023/05/26 07:46:19;;;;;;;;;;;23.70;53.70;;;;;;5086859;28;43489;-80
2023/05/26 07:48:45;;;;;;;;;;;23.70;52.80;;;;;;5086760;28;42860;-80
2023/05/26 07:51:10;;;;;;;;;;;23.70;53.20;;;;;;5085163;28;42791;-81
2023/05/26 07:53:37;;;;;;;;;;;23.70;53.20;;;;;;5086655;28;42986;-80
2023/05/26 07:56:03;;;;;;;;;;;23.70;53.10;;;;;;5086313;28;43686;-80
2023/05/26 07:58:29;;;;;;;;;;;23.80;53.40;;;;;;5085795;28;42712;-79
2023/05/26 08:00:54;;;;;;;;;;;23.60;52.90;;;;;;5084978;28;42880;-80
2023/05/26 08:03:20;;;;;;;;;;;23.70;53.50;;;;;;5086906;28;42891;-81
2023/05/26 08:05:45;;;;;;;;;;;23.70;53.60;;;;;;5086459;28;42898;-81
2023/05/26 08:08:11;;;;;;;;;;;23.70;53.60;;;;;;5086471;28;42934;-80
2023/05/26 08:10:36;;;;;;;;;;;23.70;53.50;;;;;;5086049;28;42997;-81
2023/05/26 08:13:02;;;;;;;;;;;23.70;53.50;;;;;;5086536;28;42997;-80
2023/05/26 08:15:27;;;;;;;;;;;23.70;53.50;;;;;;5086161;28;43965;-80
2023/05/26 08:17:53;;;;;;;;;;;23.80;53.50;;;;;;5086070;28;43030;-80
2023/05/26 08:20:19;;;;;;;;;;;23.80;53.40;;;;;;5086326;28;42891;-81
2023/05/26 08:22:44;;;;;;;;;;;23.70;53.40;;;;;;5085766;28;42863;-80
2023/05/26 08:25:10;;;;;;;;;;;23.80;53.60;;;;;;5085275;28;42937;-81
2023/05/26 08:27:35;;;;;;;;;;;23.80;53.60;;;;;;5085376;28;42931;-81
2023/05/26 08:30:01;;;;;;;;;;;23.80;53.80;;;;;;5085475;28;43046;-80
2023/05/26 08:32:27;;;;;;;;;;;23.80;53.70;;;;;;5085583;28;43029;-80
2023/05/26 08:34:52;;;;;;;;;;;23.80;53.20;;;;;;5085606;28;43361;-80
2023/05/26 08:37:18;;;;;;;;;;;23.80;53.80;;;;;;5085223;28;43020;-80
2023/05/26 08:39:44;;;;;;;;;;;23.80;53.70;;;;;;5085167;28;44146;-80
2023/05/26 08:42:12;;;;;;;;;;;23.80;53.80;;;;;;5085495;28;43030;-81
2023/05/26 08:44:38;;;;;;;;;;;23.80;53.30;;;;;;5085435;28;43540;-80
2023/05/26 08:47:04;;;;;;;;;;;23.80;53.70;;;;;;5085915;28;43013;-81
2023/05/26 08:49:39;;;;;;;;;;;23.80;53.90;;;;;;5085896;28;43434;-81
2023/05/26 08:52:13;;;;;;;;;;;23.80;53.80;;;;;;5085778;28;42866;-81
2023/05/26 08:54:39;;;;;;;;;;;23.80;53.80;;;;;;5085709;28;43130;-81
2023/05/26 08:57:06;;;;;;;;;;;23.90;53.80;;;;;;5085900;28;42987;-80
2023/05/26 08:59:32;;;;;;;;;;;23.90;53.90;;;;;;5085454;28;42861;-80
2023/05/26 09:01:58;;;;;;;;;;;23.90;53.90;;;;;;5085751;28;43041;-80
2023/05/26 09:04:24;;;;;;;;;;;23.80;54.00;;;;;;5085922;28;43038;-81
2023/05/26 09:06:50;;;;;;;;;;;23.90;54.00;;;;;;5085656;28;42904;-81
2023/05/26 09:09:16;;;;;;;;;;;23.80;53.50;;;;;;5066654;28;44350;-80
2023/05/26 09:11:42;;;;;;;;;;;23.90;54.00;;;;;;5084934;28;42900;-80
2023/05/26 09:14:08;;;;;;;;;;;23.90;54.20;;;;;;5085508;28;43797;-80
2023/05/26 09:16:33;;;;;;;;;;;23.80;53.80;;;;;;5085545;28;42992;-81
2023/05/26 09:19:01;;;;;;;;;;;23.80;54.30;;;;;;5085579;28;42847;-80
2023/05/26 09:21:27;;;;;;;;;;;23.90;54.50;;;;;;5085197;28;42834;-80
2023/05/26 09:23:55;;;;;;;;;;;23.90;54.50;;;;;;5085443;28;43627;-80
2023/05/26 09:26:31;;;;;;;;;;;23.90;54.50;;;;;;5067232;28;42980;-80
2023/05/26 09:28:57;;;;;;;;;;;23.90;54.50;;;;;;5084778;28;43678;-80
2023/05/26 09:31:23;;;;;;;;;;;23.90;54.60;;;;;;5085214;28;42712;-80
2023/05/26 09:33:49;;;;;;;;;;;23.90;54.30;;;;;;5084984;28;42863;-80
2023/05/26 09:36:15;;;;;;;;;;;23.90;54.70;;;;;;5085595;28;42982;-81
2023/05/26 09:38:43;;;;;;;;;;;24.00;54.50;;;;;;5087349;28;42867;-80
2023/05/26 09:41:09;;;;;;;;;;;24.00;54.60;;;;;;5087909;28;43031;-80
2023/05/26 09:43:36;;;;;;;;;;;23.90;54.60;;;;;;5087985;28;43385;-81
2023/05/26 09:46:05;;;;;;;;;;;24.00;54.70;;;;;;5088481;28;42853;-81
2023/05/26 09:48:36;;;;;;;;;;;24.00;54.70;;;;;;5089081;28;43076;-80
2023/05/26 09:51:01;;;;;;;;;;;24.00;54.80;;;;;;5087850;28;43119;-80
2023/05/26 09:53:27;;;;;;;;;;;24.00;55.00;;;;;;5088612;28;42924;-80
2023/05/26 09:55:53;;;;;;;;;;;23.90;55.10;;;;;;5088248;28;42908;-81
2023/05/26 09:58:18;;;;;;;;;;;24.00;55.00;;;;;;5087817;28;42985;-81
2023/05/26 10:00:44;;;;;;;;;;;24.00;54.90;;;;;;5088055;28;43169;-80
2023/05/26 10:03:10;;;;;;;;;;;24.00;55.10;;;;;;5086997;28;42954;-80
2023/05/26 10:05:44;;;;;;;;;;;23.90;54.40;;;;;;5088210;28;42987;-80
2023/05/26 10:08:10;;;;;;;;;;;24.00;56.30;;;;;;5069598;28;43708;-80
2023/05/26 10:10:36;;;;;;;;;;;24.00;56.30;;;;;;5088494;28;42955;-81
2023/05/26 10:13:03;;;;;;;;;;;23.90;55.40;;;;;;5088017;28;43160;-81
2023/05/26 10:15:29;;;;;;;;;;;24.00;55.90;;;;;;5087656;28;43465;-79
2023/05/26 10:17:56;;;;;;;;;;;24.00;55.70;;;;;;5087990;28;43704;-80
2023/05/26 10:20:22;;;;;;;;;;;24.00;55.60;;;;;;5087542;28;43013;-79
2023/05/26 10:22:54;;;;;;;;;;;24.00;54.80;;;;;;5088062;28;42887;-79
2023/05/26 10:25:26;;;;;;;;;;;24.00;55.20;;;;;;5087873;28;42830;-80
2023/05/26 10:28:06;;;;;;;;;;;24.00;55.10;;;;;;5087543;28;42930;-81
2023/05/26 10:30:32;;;;;;;;;;;24.10;55.00;;;;;;5087776;28;43042;-80
2023/05/26 10:33:07;;;;;;;;;;;23.90;55.20;;;;;;5087862;28;42736;-81
2023/05/26 10:35:33;;;;;;;;;;;27.30;57.40;;;;;;5069616;28;42977;-80
2023/05/26 10:38:01;;;;;;;;;;;24.00;55.80;;;;;;5087503;28;42984;-80
2023/05/26 10:40:27;;;;;;;;;;;24.00;55.60;;;;;;5087909;28;42961;-81
2023/05/26 10:43:00;;;;;;;;;;;24.00;55.10;;;;;;5087516;28;43579;-80
2023/05/26 10:45:29;;;;;;;;;;;24.10;55.00;;;;;;5087404;28;43050;-79
2023/05/26 10:47:57;;;;;;;;;;;24.10;55.50;;;;;;5087504;28;43094;-80
2023/05/26 10:50:22;;;;;;;;;;;24.00;54.90;;;;;;5086817;28;42932;-81
2023/05/26 10:52:50;;;;;;;;;;;24.10;55.50;;;;;;5087178;28;43530;-80
2023/05/26 10:55:28;;;;;;;;;;;24.10;55.30;;;;;;5087034;28;42895;-81
2023/05/26 10:57:53;;;;;;;;;;;24.10;55.00;;;;;;5087125;28;42961;-80
2023/05/26 11:00:26;;;;;;;;;;;24.10;54.50;;;;;;5087133;28;42894;-80
2023/05/26 11:02:51;;;;;;;;;;;24.10;54.60;;;;;;5086881;28;42937;-80
2023/05/26 11:05:31;;;;;;;;;;;24.10;54.70;;;;;;5087586;28;42839;-80
2023/05/26 11:07:57;;;;;;;;;;;24.10;54.50;;;;;;5087210;28;43532;-79
2023/05/26 11:10:22;;;;;;;;;;;24.00;54.20;;;;;;5086886;28;42995;-81
2023/05/26 11:12:49;;;;;;;;;;;24.00;54.40;;;;;;5068852;28;43250;-81
2023/05/26 11:15:26;;;;;;;;;;;24.00;54.80;;;;;;5087235;28;42943;-80
2023/05/26 11:18:01;;;;;;;;;;;24.00;54.60;;;;;;5087576;28;43381;-81
2023/05/26 11:20:26;;;;;;;;;;;24.00;54.50;;;;;;5087321;28;42969;-81
2023/05/26 11:22:52;;;;;;;;;;;24.00;54.10;;;;;;5086700;28;43644;-81
2023/05/26 11:25:18;;;;;;;;;;;24.10;54.70;;;;;;5086890;28;42981;-81
2023/05/26 11:27:47;;;;;;;;;;;24.10;54.10;;;;;;5086717;28;42989;-81
2023/05/26 11:30:13;;;;;;;;;;;24.10;54.10;;;;;;5087314;28;42836;-81
2023/05/26 11:32:45;;;;;;;;;;;24.10;54.10;;;;;;5086907;28;42946;-80
2023/05/26 11:35:24;;;;;;;;;;;24.10;54.60;;;;;;5087111;28;43066;-81
2023/05/26 11:37:49;;;;;;;;;;;24.10;54.60;;;;;;5086508;28;43521;-81
2023/05/26 11:40:15;;;;;;;;;;;24.10;54.70;;;;;;5086895;28;42947;-81
2023/05/26 11:42:43;;;;;;;;;;;24.10;54.60;;;;;;5087173;28;43717;-81
2023/05/26 11:45:09;;;;;;;;;;;24.10;54.10;;;;;;5086953;28;42928;-80
2023/05/26 11:47:35;;;;;;;;;;;24.10;54.60;;;;;;5087390;28;42776;-81
2023/05/26 11:50:10;;;;;;;;;;;24.10;54.60;;;;;;5087032;28;42998;-79
2023/05/26 11:52:42;;;;;;;;;;;24.10;54.40;;;;;;5086764;28;45538;-80
2023/05/26 11:55:10;;;;;;;;;;;24.10;54.50;;;;;;5086758;28;43060;-81
2023/05/26 11:57:36;;;;;;;;;;;24.10;54.80;;;;;;5086366;27;43530;-82
2023/05/26 12:00:09;;;;;;;;;;;24.10;54.40;;;;;;5104541;27;42902;-80
2023/05/26 12:02:35;;;;;;;;;;;24.10;54.40;;;;;;5106547;27;42905;-80
2023/05/26 12:05:15;;;;;;;;;;;24.10;54.40;;;;;;5105249;27;42965;-81
2023/05/26 12:07:40;;;;;;;;;;;24.10;55.10;;;;;;5106602;27;42968;-83
2023/05/26 12:10:07;;;;;;;;;;;24.10;55.30;;;;;;5104166;27;42928;-83
2023/05/26 12:12:48;;;;;;;;;;;24.10;54.90;;;;;;5100845;27;43571;-83
2023/05/26 12:15:17;;;;;;;;;;;24.10;55.30;;;;;;5100201;27;43067;-83
2023/05/26 12:17:43;;;;;;;;;;;24.10;55.50;;;;;;5106237;27;42984;-82
2023/05/26 12:20:09;;;;;;;;;;;24.10;55.80;;;;;;5106550;27;43048;-83
2023/05/26 12:22:37;;;;;;;;;;;24.10;55.80;;;;;;5106396;27;42849;-82
2023/05/26 12:25:02;;;;;;;;;;;24.10;55.60;;;;;;5106574;27;42978;-83
2023/05/26 12:27:38;;;;;;;;;;;24.10;55.90;;;;;;5106107;27;43724;-82
2023/05/26 12:30:20;;;;;;;;;;;24.10;55.50;;;;;;5087876;27;42957;-82
2023/05/26 12:32:46;;;;;;;;;;;24.10;56.10;;;;;;5106250;27;43031;-82
2023/05/26 12:35:12;;;;;;;;;;;24.20;55.30;;;;;;5087598;27;43091;-82
2023/05/26 12:37:38;;;;;;;;;;;24.30;55.60;;;;;;5106932;27;43803;-83
2023/05/26 12:40:05;;;;;;;;;;;24.20;55.70;;;;;;5106484;27;42905;-82
2023/05/26 12:42:30;;;;;;;;;;;24.20;55.60;;;;;;5106164;27;42956;-82
2023/05/26 12:44:56;;;;;;;;;;;24.40;55.70;;;;;;5106351;27;42953;-81
2023/05/26 12:47:21;;;;;;;;;;;23.50;55.10;;;;;;5106272;27;42815;-83
2023/05/26 12:49:47;;;;;;;;;;;24.40;55.60;;;;;;5106403;27;43033;-82
2023/05/26 12:52:12;;;;;;;;;;;24.30;55.40;;;;;;5106145;27;43023;-82
2023/05/26 12:54:38;;;;;;;;;;;24.30;54.60;;;;;;5087675;27;42958;-82
2023/05/26 12:57:05;;;;;;;;;;;24.20;55.20;;;;;;5087012;27;45064;-83
2023/05/26 12:59:33;;;;;;;;;;;24.30;55.60;;;;;;5106118;27;42945;-83
2023/05/26 13:01:59;;;;;;;;;;;24.30;55.10;;;;;;5106122;27;43017;-83
2023/05/26 13:04:25;;;;;;;;;;;24.30;55.60;;;;;;5106007;27;42984;-82
2023/05/26 13:06:54;;;;;;;;;;;24.30;55.20;;;;;;5105929;27;43352;-83
2023/05/26 13:09:20;;;;;;;;;;;24.30;55.80;;;;;;5105616;27;42937;-83
2023/05/26 13:11:46;;;;;;;;;;;24.30;55.40;;;;;;5105346;27;43451;-82
2023/05/26 13:14:11;;;;;;;;;;;24.30;55.90;;;;;;5106008;27;43046;-82
2023/05/26 13:16:37;;;;;;;;;;;24.30;55.40;;;;;;5106062;27;42760;-83
2023/05/26 13:19:04;;;;;;;;;;;24.30;55.40;;;;;;5105754;27;42838;-83
2023/05/26 13:21:30;;;;;;;;;;;24.30;56.20;;;;;;5105344;27;44711;-83
2023/05/26 13:23:56;;;;;;;;;;;24.30;56.00;;;;;;5104737;27;43041;-82
2023/05/26 13:26:22;;;;;;;;;;;24.30;55.50;;;;;;5105934;27;42873;-82
2023/05/26 13:28:49;;;;;;;;;;;24.30;55.50;;;;;;5105623;27;42959;-83
2023/05/26 13:31:15;;;;;;;;;;;24.40;56.00;;;;;;5105436;27;43993;-82
2023/05/26 13:33:40;;;;;;;;;;;24.30;55.30;;;;;;5105795;27;42996;-82
2023/05/26 13:36:07;;;;;;;;;;;24.30;56.00;;;;;;5105265;27;43619;-82
2023/05/26 13:38:32;;;;;;;;;;;24.40;55.80;;;;;;5105783;27;42885;-83
2023/05/26 13:40:58;;;;;;;;;;;24.30;55.20;;;;;;5087329;27;43004;-82
2023/05/26 13:43:24;;;;;;;;;;;24.30;55.90;;;;;;5105769;27;43089;-82
2023/05/26 13:45:50;;;;;;;;;;;24.40;55.60;;;;;;5105425;27;43499;-83
2023/05/26 13:48:15;;;;;;;;;;;24.30;55.60;;;;;;5105850;27;43015;-83
2023/05/26 13:50:41;;;;;;;;;;;24.30;55.60;;;;;;5105373;27;42963;-82
2023/05/26 13:53:06;;;;;;;;;;;24.30;56.60;;;;;;5105603;27;43026;-82
2023/05/26 13:55:32;;;;;;;;;;;24.40;55.60;;;;;;5105239;27;43813;-82
2023/05/26 13:57:58;;;;;;;;;;;24.40;55.60;;;;;;5105313;27;42913;-82
2023/05/26 14:00:23;;;;;;;;;;;24.40;55.50;;;;;;5105393;27;43048;-82
2023/05/26 14:02:50;;;;;;;;;;;24.40;56.10;;;;;;5104905;27;42786;-82
2023/05/26 14:05:16;;;;;;;;;;;24.30;56.10;;;;;;5104461;27;42938;-82
2023/05/26 14:07:42;;;;;;;;;;;24.40;55.50;;;;;;5086048;27;43070;-83
2023/05/26 14:10:08;;;;;;;;;;;24.30;55.40;;;;;;5105654;27;43082;-77
2023/05/26 14:12:34;;;;;;;;;;;24.40;55.90;;;;;;5114872;27;42801;-81